sensor_id;sensor_type;location;lat;lon;timestamp;temperature;humidity
25208;DHT22;13153;52.316;21.166;2023-07-31T00:00:33;20.20;99.90
25208;DHT22;13153;52.316;21.166;2023-07-31T00:02:59;20.20;99.90
25208;DHT22;13153;52.316;21.166;2023-07-31T00:05:25;20.20;99.90
25208;DHT22;13153;52.316;21.166;2023-07-31T00:07:51;20.20;99.90
25208;DHT22;13153;52.316;21.166;2023-07-31T00:10:17;20.10;99.90
25208;DHT22;13153;52.316;21.166;2023-07-31T00:12:44;20.10;99.90
25208;DHT22;13153;52.316;21.166;2023-07-31T00:15:11;20.10;99.90
25208;DHT22;13153;52.316;21.166;2023-07-31T00:17:38;20.10;99.90
25208;DHT22;13153;52.316;21.166;2023-07-31T00:20:04;20.10;99.90
25208;DHT22;13153;52.316;21.166;2023-07-31T00:22:30;20.10;99.90
25208;DHT22;13153;52.316;21.166;2023-07-31T00:24:56;20.00;99.90
25208;DHT22;13153;52.316;21.166;2023-07-31T00:27:22;20.00;99.90
25208;DHT22;13153;52.316;21.166;2023-07-31T00:29:48;20.00;99.90
25208;DHT22;13153;52.316;21.166;2023-07-31T00:32:14;20.00;99.90
25208;DHT22;13153;52.316;21.166;2023-07-31T00:34:40;20.00;99.90
25208;DHT22;13153;52.316;21.166;2023-07-31T00:37:06;19.90;99.90
25208;DHT22;13153;52.316;21.166;2023-07-31T00:39:34;19.90;99.90
25208;DHT22;13153;52.316;21.166;2023-07-31T00:42:00;19.90;99.90
25208;DHT22;13153;52.316;21.166;2023-07-31T00:44:26;19.90;99.90
25208;DHT22;13153;52.316;21.166;2023-07-31T00:46:53;19.90;99.90
25208;DHT22;13153;52.316;21.166;2023-07-31T00:49:22;19.90;99.90
25208;DHT22;13153;52.316;21.166;2023-07-31T00:51:48;19.80;99.90
25208;DHT22;13153;52.316;21.166;2023-07-31T00:54:14;19.80;99.90
25208;DHT22;13153;52.316;21.166;2023-07-31T00:56:40;19.80;99.90
25208;DHT22;13153;52.316;21.166;2023-07-31T00:59:10;19.80;99.90
25208;DHT22;13153;52.316;21.166;2023-07-31T01:01:36;19.80;99.90
25208;DHT22;13153;52.316;21.166;2023-07-31T01:04:02;19.80;99.90
25208;DHT22;13153;52.316;21.166;2023-07-31T01:06:44;19.70;99.90
25208;DHT22;13153;52.316;21.166;2023-07-31T01:09:19;19.70;99.90
25208;DHT22;13153;52.316;21.166;2023-07-31T01:11:53;19.70;99.90
25208;DHT22;13153;52.316;21.166;2023-07-31T01:14:22;19.70;99.90
25208;DHT22;13153;52.316;21.166;2023-07-31T01:16:48;19.70;99.90
25208;DHT22;13153;52.316;21.166;2023-07-31T01:19:15;19.70;99.90
25208;DHT22;13153;52.316;21.166;2023-07-31T01:27:35;19.60;99.90
25208;DHT22;13153;52.316;21.166;2023-07-31T01:30:16;19.50;99.90
25208;DHT22;13153;52.316;21.166;2023-07-31T01:32:48;19.50;99.90
25208;DHT22;13153;52.316;21.166;2023-07-31T01:35:16;19.40;99.90
25208;DHT22;13153;52.316;21.166;2023-07-31T01:37:42;19.50;99.90
25208;DHT22;13153;52.316;21.166;2023-07-31T01:40:08;19.40;99.90
25208;DHT22;13153;52.316;21.166;2023-07-31T01:42:34;19.40;99.90
25208;DHT22;13153;52.316;21.166;2023-07-31T01:45:00;19.40;99.90
25208;DHT22;13153;52.316;21.166;2023-07-31T01:47:26;19.40;99.90
25208;DHT22;13153;52.316;21.166;2023-07-31T01:49:52;19.40;99.90
25208;DHT22;13153;52.316;21.166;2023-07-31T01:52:17;19.40;99.90
25208;DHT22;13153;52.316;21.166;2023-07-31T01:54:43;19.40;99.90
25208;DHT22;13153;52.316;21.166;2023-07-31T01:57:09;19.40;99.90
25208;DHT22;13153;52.316;21.166;2023-07-31T01:59:36;19.40;99.90
25208;DHT22;13153;52.316;21.166;2023-07-31T02:02:01;19.40;99.90
25208;DHT22;13153;52.316;21.166;2023-07-31T02:04:27;19.40;99.90
25208;DHT22;13153;52.316;21.166;2023-07-31T02:06:53;19.40;99.90
25208;DHT22;13153;52.316;21.166;2023-07-31T02:09:19;19.30;99.90
25208;DHT22;13153;52.316;21.166;2023-07-31T02:11:45;19.30;99.90
25208;DHT22;13153;52.316;21.166;2023-07-31T02:14:10;19.30;99.90
25208;DHT22;13153;52.316;21.166;2023-07-31T02:16:36;19.20;99.90
25208;DHT22;13153;52.316;21.166;2023-07-31T02:19:02;19.20;99.90
25208;DHT22;13153;52.316;21.166;2023-07-31T02:21:28;19.20;99.90
25208;DHT22;13153;52.316;21.166;2023-07-31T02:23:53;19.20;99.90
25208;DHT22;13153;52.316;21.166;2023-07-31T02:26:19;19.20;99.90
25208;DHT22;13153;52.316;21.166;2023-07-31T02:28:45;19.20;99.90
25208;DHT22;13153;52.316;21.166;2023-07-31T02:31:10;19.10;99.90
25208;DHT22;13153;52.316;21.166;2023-07-31T02:33:36;19.10;99.90
25208;DHT22;13153;52.316;21.166;2023-07-31T02:36:02;19.10;99.90
25208;DHT22;13153;52.316;21.166;2023-07-31T02:38:28;19.00;99.90
25208;DHT22;13153;52.316;21.166;2023-07-31T02:40:54;19.00;99.90
25208;DHT22;13153;52.316;21.166;2023-07-31T02:43:19;19.00;99.90
25208;DHT22;13153;52.316;21.166;2023-07-31T02:45:45;19.00;99.90
25208;DHT22;13153;52.316;21.166;2023-07-31T02:48:11;18.90;99.90
25208;DHT22;13153;52.316;21.166;2023-07-31T02:50:36;18.90;99.90
25208;DHT22;13153;52.316;21.166;2023-07-31T02:53:02;18.90;99.90
25208;DHT22;13153;52.316;21.166;2023-07-31T02:55:28;18.90;99.90
25208;DHT22;13153;52.316;21.166;2023-07-31T02:57:54;18.80;99.90
25208;DHT22;13153;52.316;21.166;2023-07-31T03:00:19;18.90;99.90
25208;DHT22;13153;52.316;21.166;2023-07-31T03:02:45;18.90;99.90
25208;DHT22;13153;52.316;21.166;2023-07-31T03:05:11;18.90;99.90
25208;DHT22;13153;52.316;21.166;2023-07-31T03:07:36;18.90;99.90
25208;DHT22;13153;52.316;21.166;2023-07-31T03:10:02;18.90;99.90
25208;DHT22;13153;52.316;21.166;2023-07-31T03:12:28;18.90;99.90
25208;DHT22;13153;52.316;21.166;2023-07-31T03:14:54;18.90;99.90
25208;DHT22;13153;52.316;21.166;2023-07-31T03:17:20;19.00;99.90
25208;DHT22;13153;52.316;21.166;2023-07-31T03:19:46;19.00;99.90
25208;DHT22;13153;52.316;21.166;2023-07-31T03:22:11;19.10;99.90
25208;DHT22;13153;52.316;21.166;2023-07-31T03:24:37;19.10;99.90
25208;DHT22;13153;52.316;21.166;2023-07-31T03:27:03;19.10;99.90
25208;DHT22;13153;52.316;21.166;2023-07-31T03:29:29;19.10;99.90
25208;DHT22;13153;52.316;21.166;2023-07-31T03:31:55;19.10;99.90
25208;DHT22;13153;52.316;21.166;2023-07-31T03:34:22;19.20;99.90
25208;DHT22;13153;52.316;21.166;2023-07-31T03:36:48;19.10;99.90
25208;DHT22;13153;52.316;21.166;2023-07-31T03:39:13;19.10;99.90
25208;DHT22;13153;52.316;21.166;2023-07-31T03:41:39;19.10;99.90
25208;DHT22;13153;52.316;21.166;2023-07-31T03:44:05;19.10;99.90
25208;DHT22;13153;52.316;21.166;2023-07-31T03:46:30;19.20;99.90
25208;DHT22;13153;52.316;21.166;2023-07-31T03:48:56;19.20;99.90
25208;DHT22;13153;52.316;21.166;2023-07-31T03:51:22;19.20;99.90
25208;DHT22;13153;52.316;21.166;2023-07-31T03:53:48;19.20;99.90
25208;DHT22;13153;52.316;21.166;2023-07-31T03:56:14;19.20;99.90
25208;DHT22;13153;52.316;21.166;2023-07-31T03:58:39;19.30;99.90
25208;DHT22;13153;52.316;21.166;2023-07-31T04:01:06;19.30;99.90
25208;DHT22;13153;52.316;21.166;2023-07-31T04:03:32;19.30;99.90
25208;DHT22;13153;52.316;21.166;2023-07-31T04:05:57;19.30;99.90
25208;DHT22;13153;52.316;21.166;2023-07-31T04:08:23;19.30;99.90
25208;DHT22;13153;52.316;21.166;2023-07-31T04:10:50;19.30;99.90
25208;DHT22;13153;52.316;21.166;2023-07-31T04:13:16;19.40;99.90
25208;DHT22;13153;52.316;21.166;2023-07-31T04:15:42;19.40;99.90
25208;DHT22;13153;52.316;21.166;2023-07-31T04:18:07;19.40;99.90
25208;DHT22;13153;52.316;21.166;2023-07-31T04:20:33;19.40;99.90
25208;DHT22;13153;52.316;21.166;2023-07-31T04:22:59;19.40;99.90
25208;DHT22;13153;52.316;21.166;2023-07-31T04:25:25;19.50;99.90
25208;DHT22;13153;52.316;21.166;2023-07-31T04:27:51;19.50;99.90
25208;DHT22;13153;52.316;21.166;2023-07-31T04:30:16;19.50;99.90
25208;DHT22;13153;52.316;21.166;2023-07-31T04:32:42;19.50;99.90
25208;DHT22;13153;52.316;21.166;2023-07-31T04:35:08;19.50;99.90
25208;DHT22;13153;52.316;21.166;2023-07-31T04:37:34;19.50;99.90
25208;DHT22;13153;52.316;21.166;2023-07-31T04:39:59;19.50;99.90
25208;DHT22;13153;52.316;21.166;2023-07-31T04:42:25;19.50;99.90
25208;DHT22;13153;52.316;21.166;2023-07-31T04:44:51;19.50;99.90
25208;DHT22;13153;52.316;21.166;2023-07-31T04:47:18;19.50;99.90
25208;DHT22;13153;52.316;21.166;2023-07-31T04:49:44;19.50;99.90
25208;DHT22;13153;52.316;21.166;2023-07-31T04:52:10;19.50;99.90
25208;DHT22;13153;52.316;21.166;2023-07-31T04:54:36;19.50;99.90
25208;DHT22;13153;52.316;21.166;2023-07-31T04:57:02;19.50;99.90
25208;DHT22;13153;52.316;21.166;2023-07-31T04:59:28;19.50;99.90
25208;DHT22;13153;52.316;21.166;2023-07-31T05:01:53;19.50;99.90
25208;DHT22;13153;52.316;21.166;2023-07-31T05:04:19;19.50;99.90
25208;DHT22;13153;52.316;21.166;2023-07-31T05:06:45;19.60;99.90
25208;DHT22;13153;52.316;21.166;2023-07-31T05:09:11;19.60;99.90
25208;DHT22;13153;52.316;21.166;2023-07-31T05:11:37;19.60;99.90
25208;DHT22;13153;52.316;21.166;2023-07-31T05:14:03;19.60;99.90
25208;DHT22;13153;52.316;21.166;2023-07-31T05:16:29;19.60;99.90
25208;DHT22;13153;52.316;21.166;2023-07-31T05:18:54;19.70;99.90
25208;DHT22;13153;52.316;21.166;2023-07-31T05:21:20;19.70;99.90
25208;DHT22;13153;52.316;21.166;2023-07-31T05:23:46;19.70;99.90
25208;DHT22;13153;52.316;21.166;2023-07-31T05:26:13;19.70;99.90
25208;DHT22;13153;52.316;21.166;2023-07-31T05:28:39;19.80;99.90
25208;DHT22;13153;52.316;21.166;2023-07-31T05:31:05;19.80;99.90
25208;DHT22;13153;52.316;21.166;2023-07-31T05:33:32;19.80;99.90
25208;DHT22;13153;52.316;21.166;2023-07-31T05:35:58;19.80;99.90
25208;DHT22;13153;52.316;21.166;2023-07-31T05:38:24;19.90;99.90
25208;DHT22;13153;52.316;21.166;2023-07-31T05:40:49;19.90;99.90
25208;DHT22;13153;52.316;21.166;2023-07-31T05:43:15;19.90;99.90
25208;DHT22;13153;52.316;21.166;2023-07-31T05:45:42;20.00;99.90
25208;DHT22;13153;52.316;21.166;2023-07-31T05:48:08;20.00;99.90
25208;DHT22;13153;52.316;21.166;2023-07-31T05:50:34;20.10;99.90
25208;DHT22;13153;52.316;21.166;2023-07-31T05:53:00;20.20;99.90
25208;DHT22;13153;52.316;21.166;2023-07-31T05:55:26;20.30;99.90
25208;DHT22;13153;52.316;21.166;2023-07-31T05:57:52;20.30;99.90
25208;DHT22;13153;52.316;21.166;2023-07-31T06:00:18;20.40;99.90
25208;DHT22;13153;52.316;21.166;2023-07-31T06:02:44;20.40;99.90
25208;DHT22;13153;52.316;21.166;2023-07-31T06:05:10;20.40;99.90
25208;DHT22;13153;52.316;21.166;2023-07-31T06:07:36;20.50;99.90
25208;DHT22;13153;52.316;21.166;2023-07-31T06:10:02;20.60;99.90
25208;DHT22;13153;52.316;21.166;2023-07-31T06:12:32;20.60;99.90
25208;DHT22;13153;52.316;21.166;2023-07-31T06:14:58;20.80;99.90
25208;DHT22;13153;52.316;21.166;2023-07-31T06:17:24;20.90;99.90
25208;DHT22;13153;52.316;21.166;2023-07-31T06:19:51;21.00;99.90
25208;DHT22;13153;52.316;21.166;2023-07-31T06:22:17;21.00;99.90
25208;DHT22;13153;52.316;21.166;2023-07-31T06:24:43;21.10;99.90
25208;DHT22;13153;52.316;21.166;2023-07-31T06:27:10;21.10;99.90
25208;DHT22;13153;52.316;21.166;2023-07-31T06:29:37;21.20;99.90
25208;DHT22;13153;52.316;21.166;2023-07-31T06:32:03;21.20;99.90
25208;DHT22;13153;52.316;21.166;2023-07-31T06:34:29;21.30;99.90
25208;DHT22;13153;52.316;21.166;2023-07-31T06:36:58;21.30;99.90
25208;DHT22;13153;52.316;21.166;2023-07-31T06:39:24;21.40;99.90
25208;DHT22;13153;52.316;21.166;2023-07-31T06:41:50;21.50;99.90
25208;DHT22;13153;52.316;21.166;2023-07-31T06:44:16;21.50;99.90
25208;DHT22;13153;52.316;21.166;2023-07-31T06:46:42;21.40;99.90
25208;DHT22;13153;52.316;21.166;2023-07-31T06:49:08;21.40;99.90
25208;DHT22;13153;52.316;21.166;2023-07-31T06:51:34;21.40;99.90
25208;DHT22;13153;52.316;21.166;2023-07-31T06:54:01;21.30;99.90
25208;DHT22;13153;52.316;21.166;2023-07-31T06:56:27;21.30;99.90
25208;DHT22;13153;52.316;21.166;2023-07-31T06:58:53;21.20;99.90
25208;DHT22;13153;52.316;21.166;2023-07-31T07:01:18;21.20;99.90
25208;DHT22;13153;52.316;21.166;2023-07-31T07:03:44;21.10;99.90
25208;DHT22;13153;52.316;21.166;2023-07-31T07:06:10;21.00;99.90
25208;DHT22;13153;52.316;21.166;2023-07-31T07:08:36;21.00;99.90
25208;DHT22;13153;52.316;21.166;2023-07-31T07:11:01;20.90;99.90
25208;DHT22;13153;52.316;21.166;2023-07-31T07:13:27;20.90;99.90
25208;DHT22;13153;52.316;21.166;2023-07-31T07:15:53;20.80;99.90
25208;DHT22;13153;52.316;21.166;2023-07-31T07:18:19;20.90;99.90
25208;DHT22;13153;52.316;21.166;2023-07-31T07:20:50;20.90;99.90
25208;DHT22;13153;52.316;21.166;2023-07-31T07:23:16;20.90;99.90
25208;DHT22;13153;52.316;21.166;2023-07-31T07:25:43;20.90;99.90
25208;DHT22;13153;52.316;21.166;2023-07-31T07:28:11;20.90;99.90
25208;DHT22;13153;52.316;21.166;2023-07-31T07:30:38;20.80;99.90
25208;DHT22;13153;52.316;21.166;2023-07-31T07:33:03;20.90;99.90
25208;DHT22;13153;52.316;21.166;2023-07-31T07:35:29;20.90;99.90
25208;DHT22;13153;52.316;21.166;2023-07-31T07:37:55;21.20;99.90
25208;DHT22;13153;52.316;21.166;2023-07-31T07:40:22;21.80;99.90
25208;DHT22;13153;52.316;21.166;2023-07-31T07:42:48;22.70;99.90
25208;DHT22;13153;52.316;21.166;2023-07-31T07:45:13;24.10;99.90
25208;DHT22;13153;52.316;21.166;2023-07-31T07:47:41;25.00;99.90
25208;DHT22;13153;52.316;21.166;2023-07-31T07:50:07;25.40;99.90
25208;DHT22;13153;52.316;21.166;2023-07-31T07:52:34;25.90;99.90
25208;DHT22;13153;52.316;21.166;2023-07-31T07:55:00;26.10;99.90
25208;DHT22;13153;52.316;21.166;2023-07-31T07:57:26;26.40;99.90
25208;DHT22;13153;52.316;21.166;2023-07-31T07:59:52;26.90;99.90
25208;DHT22;13153;52.316;21.166;2023-07-31T08:02:18;27.20;99.90
25208;DHT22;13153;52.316;21.166;2023-07-31T08:04:44;27.30;99.90
25208;DHT22;13153;52.316;21.166;2023-07-31T08:07:13;27.30;99.90
25208;DHT22;13153;52.316;21.166;2023-07-31T08:09:39;27.20;99.90
25208;DHT22;13153;52.316;21.166;2023-07-31T08:12:06;27.00;99.90
25208;DHT22;13153;52.316;21.166;2023-07-31T08:14:32;26.90;99.90
25208;DHT22;13153;52.316;21.166;2023-07-31T08:16:58;26.90;99.90
25208;DHT22;13153;52.316;21.166;2023-07-31T08:19:23;26.90;99.90
25208;DHT22;13153;52.316;21.166;2023-07-31T08:21:49;26.90;99.90
25208;DHT22;13153;52.316;21.166;2023-07-31T08:24:15;27.00;99.90
25208;DHT22;13153;52.316;21.166;2023-07-31T08:26:41;27.10;99.90
25208;DHT22;13153;52.316;21.166;2023-07-31T08:29:07;27.10;99.90
25208;DHT22;13153;52.316;21.166;2023-07-31T08:31:33;27.20;99.90
25208;DHT22;13153;52.316;21.166;2023-07-31T08:34:00;27.30;99.90
25208;DHT22;13153;52.316;21.166;2023-07-31T08:36:25;27.40;99.90
25208;DHT22;13153;52.316;21.166;2023-07-31T08:38:51;27.40;99.90
25208;DHT22;13153;52.316;21.166;2023-07-31T08:41:17;27.40;99.90
25208;DHT22;13153;52.316;21.166;2023-07-31T08:43:45;27.50;99.90
25208;DHT22;13153;52.316;21.166;2023-07-31T08:46:12;27.60;99.90
25208;DHT22;13153;52.316;21.166;2023-07-31T08:48:41;27.60;99.90
25208;DHT22;13153;52.316;21.166;2023-07-31T08:51:08;27.50;99.90
25208;DHT22;13153;52.316;21.166;2023-07-31T08:53:35;27.60;99.90
25208;DHT22;13153;52.316;21.166;2023-07-31T08:56:01;27.50;99.90
25208;DHT22;13153;52.316;21.166;2023-07-31T08:58:31;27.50;99.90
25208;DHT22;13153;52.316;21.166;2023-07-31T09:01:01;27.40;99.90
25208;DHT22;13153;52.316;21.166;2023-07-31T09:03:33;27.40;99.90
25208;DHT22;13153;52.316;21.166;2023-07-31T09:06:02;27.30;99.90
25208;DHT22;13153;52.316;21.166;2023-07-31T09:08:32;27.30;99.90
25208;DHT22;13153;52.316;21.166;2023-07-31T09:11:02;27.20;99.90
25208;DHT22;13153;52.316;21.166;2023-07-31T09:13:31;27.20;99.90
25208;DHT22;13153;52.316;21.166;2023-07-31T09:15:57;27.10;99.90
25208;DHT22;13153;52.316;21.166;2023-07-31T09:18:24;26.90;99.90
25208;DHT22;13153;52.316;21.166;2023-07-31T09:23:50;26.60;99.90
25208;DHT22;13153;52.316;21.166;2023-07-31T09:28:57;26.50;99.90
25208;DHT22;13153;52.316;21.166;2023-07-31T09:31:38;26.40;99.90
25208;DHT22;13153;52.316;21.166;2023-07-31T09:34:04;26.30;99.90
25208;DHT22;13153;52.316;21.166;2023-07-31T09:36:30;26.30;99.90
25208;DHT22;13153;52.316;21.166;2023-07-31T09:39:02;26.30;99.90
25208;DHT22;13153;52.316;21.166;2023-07-31T09:41:30;26.20;99.90
25208;DHT22;13153;52.316;21.166;2023-07-31T09:43:56;26.20;99.90
25208;DHT22;13153;52.316;21.166;2023-07-31T09:46:27;26.30;99.90
25208;DHT22;13153;52.316;21.166;2023-07-31T09:48:53;26.20;99.90
25208;DHT22;13153;52.316;21.166;2023-07-31T09:51:26;26.30;99.90
25208;DHT22;13153;52.316;21.166;2023-07-31T09:53:52;26.30;99.90
25208;DHT22;13153;52.316;21.166;2023-07-31T09:56:19;26.30;99.90
25208;DHT22;13153;52.316;21.166;2023-07-31T09:58:48;26.30;99.90
25208;DHT22;13153;52.316;21.166;2023-07-31T10:01:14;26.20;99.90
25208;DHT22;13153;52.316;21.166;2023-07-31T10:03:41;26.10;99.90
25208;DHT22;13153;52.316;21.166;2023-07-31T10:06:10;26.10;99.90
25208;DHT22;13153;52.316;21.166;2023-07-31T10:08:38;26.00;99.90
25208;DHT22;13153;52.316;21.166;2023-07-31T10:11:07;26.00;99.90
25208;DHT22;13153;52.316;21.166;2023-07-31T10:13:35;26.00;99.90
25208;DHT22;13153;52.316;21.166;2023-07-31T10:16:02;26.00;99.90
25208;DHT22;13153;52.316;21.166;2023-07-31T10:18:28;26.00;99.90
25208;DHT22;13153;52.316;21.166;2023-07-31T10:20:55;25.90;99.90
25208;DHT22;13153;52.316;21.166;2023-07-31T10:23:23;25.90;99.80
25208;DHT22;13153;52.316;21.166;2023-07-31T10:25:52;25.90;99.70
25208;DHT22;13153;52.316;21.166;2023-07-31T10:28:20;25.90;99.80
25208;DHT22;13153;52.316;21.166;2023-07-31T10:30:46;25.90;98.60
25208;DHT22;13153;52.316;21.166;2023-07-31T10:33:13;25.90;99.00
25208;DHT22;13153;52.316;21.166;2023-07-31T10:35:40;25.90;99.40
25208;DHT22;13153;52.316;21.166;2023-07-31T10:38:10;25.90;97.30
25208;DHT22;13153;52.316;21.166;2023-07-31T10:40:39;25.80;95.80
25208;DHT22;13153;52.316;21.166;2023-07-31T10:43:06;25.70;95.20
25208;DHT22;13153;52.316;21.166;2023-07-31T10:45:38;25.60;94.60
25208;DHT22;13153;52.316;21.166;2023-07-31T10:50:50;25.50;99.90
25208;DHT22;13153;52.316;21.166;2023-07-31T10:53:30;25.40;99.90
25208;DHT22;13153;52.316;21.166;2023-07-31T10:56:02;25.20;99.70
25208;DHT22;13153;52.316;21.166;2023-07-31T10:58:30;25.20;99.90
25208;DHT22;13153;52.316;21.166;2023-07-31T11:01:04;25.10;99.80
25208;DHT22;13153;52.316;21.166;2023-07-31T11:03:43;25.10;99.50
25208;DHT22;13153;52.316;21.166;2023-07-31T11:06:18;25.00;99.90
25208;DHT22;13153;52.316;21.166;2023-07-31T11:08:48;25.10;99.90
25208;DHT22;13153;52.316;21.166;2023-07-31T11:11:17;25.00;99.80
25208;DHT22;13153;52.316;21.166;2023-07-31T11:13:47;25.10;99.90
25208;DHT22;13153;52.316;21.166;2023-07-31T11:16:19;25.00;99.90
25208;DHT22;13153;52.316;21.166;2023-07-31T11:18:47;25.10;99.90
25208;DHT22;13153;52.316;21.166;2023-07-31T11:21:32;25.00;99.90
25208;DHT22;13153;52.316;21.166;2023-07-31T11:23:58;25.00;99.90
25208;DHT22;13153;52.316;21.166;2023-07-31T11:26:24;25.00;99.90
25208;DHT22;13153;52.316;21.166;2023-07-31T11:28:51;24.90;99.90
25208;DHT22;13153;52.316;21.166;2023-07-31T11:31:18;24.90;99.90
25208;DHT22;13153;52.316;21.166;2023-07-31T11:33:44;24.90;99.90
25208;DHT22;13153;52.316;21.166;2023-07-31T11:36:17;25.00;99.90
25208;DHT22;13153;52.316;21.166;2023-07-31T11:38:44;24.90;99.90
25208;DHT22;13153;52.316;21.166;2023-07-31T11:41:10;24.90;99.90
25208;DHT22;13153;52.316;21.166;2023-07-31T11:43:39;24.90;99.90
25208;DHT22;13153;52.316;21.166;2023-07-31T11:46:05;24.90;99.90
25208;DHT22;13153;52.316;21.166;2023-07-31T11:48:37;24.80;99.90
25208;DHT22;13153;52.316;21.166;2023-07-31T11:51:04;24.80;99.90
25208;DHT22;13153;52.316;21.166;2023-07-31T11:53:43;24.80;99.90
25208;DHT22;13153;52.316;21.166;2023-07-31T11:56:29;24.80;99.90
25208;DHT22;13153;52.316;21.166;2023-07-31T11:58:58;24.80;99.90
25208;DHT22;13153;52.316;21.166;2023-07-31T12:01:28;24.80;99.90
25208;DHT22;13153;52.316;21.166;2023-07-31T12:03:55;24.80;99.90
25208;DHT22;13153;52.316;21.166;2023-07-31T12:06:22;24.80;99.90
25208;DHT22;13153;52.316;21.166;2023-07-31T12:09:04;24.80;99.90
25208;DHT22;13153;52.316;21.166;2023-07-31T12:11:30;24.80;99.90
25208;DHT22;13153;52.316;21.166;2023-07-31T12:13:56;24.80;99.90
25208;DHT22;13153;52.316;21.166;2023-07-31T12:16:26;24.80;99.30
25208;DHT22;13153;52.316;21.166;2023-07-31T12:18:52;24.80;99.90
25208;DHT22;13153;52.316;21.166;2023-07-31T12:21:19;24.70;99.90
25208;DHT22;13153;52.316;21.166;2023-07-31T12:23:45;24.70;99.90
25208;DHT22;13153;52.316;21.166;2023-07-31T12:26:15;24.70;99.90
25208;DHT22;13153;52.316;21.166;2023-07-31T12:28:42;24.70;99.90
25208;DHT22;13153;52.316;21.166;2023-07-31T12:33:48;24.60;99.90
25208;DHT22;13153;52.316;21.166;2023-07-31T12:36:25;24.60;99.90
25208;DHT22;13153;52.316;21.166;2023-07-31T12:38:52;24.60;99.90
25208;DHT22;13153;52.316;21.166;2023-07-31T12:41:18;24.60;99.90
25208;DHT22;13153;52.316;21.166;2023-07-31T12:43:45;24.50;99.90
25208;DHT22;13153;52.316;21.166;2023-07-31T12:46:11;24.50;99.90
25208;DHT22;13153;52.316;21.166;2023-07-31T12:48:38;24.50;99.90
25208;DHT22;13153;52.316;21.166;2023-07-31T12:51:05;24.50;99.90
25208;DHT22;13153;52.316;21.166;2023-07-31T12:53:32;24.50;99.90
25208;DHT22;13153;52.316;21.166;2023-07-31T12:55:58;24.50;99.90
25208;DHT22;13153;52.316;21.166;2023-07-31T12:58:25;24.50;99.90
25208;DHT22;13153;52.316;21.166;2023-07-31T13:00:51;24.40;99.90
25208;DHT22;13153;52.316;21.166;2023-07-31T13:03:17;24.40;99.90
25208;DHT22;13153;52.316;21.166;2023-07-31T13:05:43;24.40;99.90
25208;DHT22;13153;52.316;21.166;2023-07-31T13:08:08;24.40;99.90
25208;DHT22;13153;52.316;21.166;2023-07-31T13:10:34;24.40;99.90
25208;DHT22;13153;52.316;21.166;2023-07-31T13:13:00;24.40;99.90
25208;DHT22;13153;52.316;21.166;2023-07-31T13:15:26;24.50;99.90
25208;DHT22;13153;52.316;21.166;2023-07-31T13:17:52;24.40;99.90
25208;DHT22;13153;52.316;21.166;2023-07-31T13:20:17;24.50;99.90
25208;DHT22;13153;52.316;21.166;2023-07-31T13:22:43;24.60;99.90
25208;DHT22;13153;52.316;21.166;2023-07-31T13:25:09;24.60;99.90
25208;DHT22;13153;52.316;21.166;2023-07-31T13:27:35;24.60;99.90
25208;DHT22;13153;52.316;21.166;2023-07-31T13:30:01;24.60;99.90
25208;DHT22;13153;52.316;21.166;2023-07-31T13:32:27;24.60;99.90
25208;DHT22;13153;52.316;21.166;2023-07-31T13:34:53;24.60;99.90
25208;DHT22;13153;52.316;21.166;2023-07-31T13:37:18;24.60;99.90
25208;DHT22;13153;52.316;21.166;2023-07-31T13:39:44;24.60;99.90
25208;DHT22;13153;52.316;21.166;2023-07-31T13:42:10;24.50;97.50
25208;DHT22;13153;52.316;21.166;2023-07-31T13:44:38;24.50;98.40
25208;DHT22;13153;52.316;21.166;2023-07-31T13:47:05;24.50;96.90
25208;DHT22;13153;52.316;21.166;2023-07-31T13:49:32;24.50;96.40
25208;DHT22;13153;52.316;21.166;2023-07-31T13:51:58;24.50;99.90
25208;DHT22;13153;52.316;21.166;2023-07-31T13:54:24;24.50;99.80
25208;DHT22;13153;52.316;21.166;2023-07-31T13:56:54;24.50;99.90
25208;DHT22;13153;52.316;21.166;2023-07-31T13:59:20;24.50;98.80
25208;DHT22;13153;52.316;21.166;2023-07-31T14:01:46;24.50;99.90
25208;DHT22;13153;52.316;21.166;2023-07-31T14:04:12;24.50;96.70
25208;DHT22;13153;52.316;21.166;2023-07-31T14:06:38;24.50;97.60
25208;DHT22;13153;52.316;21.166;2023-07-31T14:09:04;24.50;97.10
25208;DHT22;13153;52.316;21.166;2023-07-31T14:11:33;24.60;97.30
25208;DHT22;13153;52.316;21.166;2023-07-31T14:13:59;24.50;96.20
25208;DHT22;13153;52.316;21.166;2023-07-31T14:16:27;24.50;99.20
25208;DHT22;13153;52.316;21.166;2023-07-31T14:18:53;24.40;95.50
25208;DHT22;13153;52.316;21.166;2023-07-31T14:21:20;24.40;99.70
25208;DHT22;13153;52.316;21.166;2023-07-31T14:23:46;24.40;99.90
25208;DHT22;13153;52.316;21.166;2023-07-31T14:26:11;24.30;96.70
25208;DHT22;13153;52.316;21.166;2023-07-31T14:28:38;24.20;99.90
25208;DHT22;13153;52.316;21.166;2023-07-31T14:31:03;24.20;99.90
25208;DHT22;13153;52.316;21.166;2023-07-31T14:33:29;24.10;99.90
25208;DHT22;13153;52.316;21.166;2023-07-31T14:35:55;24.00;99.90
25208;DHT22;13153;52.316;21.166;2023-07-31T14:38:21;24.00;99.90
25208;DHT22;13153;52.316;21.166;2023-07-31T14:40:47;23.90;99.90
25208;DHT22;13153;52.316;21.166;2023-07-31T14:43:12;23.90;99.90
25208;DHT22;13153;52.316;21.166;2023-07-31T14:45:38;23.90;99.90
25208;DHT22;13153;52.316;21.166;2023-07-31T14:48:04;23.80;99.90
25208;DHT22;13153;52.316;21.166;2023-07-31T14:50:30;23.90;99.90
25208;DHT22;13153;52.316;21.166;2023-07-31T14:52:56;23.90;99.90
25208;DHT22;13153;52.316;21.166;2023-07-31T14:55:22;23.90;99.80
25208;DHT22;13153;52.316;21.166;2023-07-31T14:57:47;24.00;99.90
25208;DHT22;13153;52.316;21.166;2023-07-31T15:00:14;24.00;99.90
25208;DHT22;13153;52.316;21.166;2023-07-31T15:02:40;24.00;99.90
25208;DHT22;13153;52.316;21.166;2023-07-31T15:05:06;24.00;99.90
25208;DHT22;13153;52.316;21.166;2023-07-31T15:07:33;24.00;99.90
25208;DHT22;13153;52.316;21.166;2023-07-31T15:10:01;24.00;99.90
25208;DHT22;13153;52.316;21.166;2023-07-31T15:12:27;24.00;99.90
25208;DHT22;13153;52.316;21.166;2023-07-31T15:14:54;24.00;99.90
25208;DHT22;13153;52.316;21.166;2023-07-31T15:17:20;24.00;99.90
25208;DHT22;13153;52.316;21.166;2023-07-31T15:19:46;24.00;99.90
25208;DHT22;13153;52.316;21.166;2023-07-31T15:22:12;24.10;99.90
25208;DHT22;13153;52.316;21.166;2023-07-31T15:24:38;24.00;99.90
25208;DHT22;13153;52.316;21.166;2023-07-31T15:27:04;23.90;99.90
25208;DHT22;13153;52.316;21.166;2023-07-31T15:29:30;23.90;99.90